Time;durP1;ratioP1;P1;durP2;ratioP2;P2;SDS_P1;SDS_P2;PMS_P1;PMS_P2;Temp;Humidity;BMP_temperature;BMP_pressure;BME280_temperature;BME280_humidity;BME280_pressure;Samples;Min_cycle;Max_cycle;Signal;HPM_P1;HPM_P2
2023/08/07 00:01:01;;;;;;;4.50;3.70;;;;;;;26.87;42.38;99481.70;104127;1290;69294;-84
2023/08/07 00:03:26;;;;;;;5.50;3.30;;;;;;;26.86;42.46;99479.10;104294;1284;69279;-84
2023/08/07 00:05:52;;;;;;;5.80;3.50;;;;;;;26.86;42.40;99487.01;104281;1289;69207;-84
2023/08/07 00:08:20;;;;;;;6.90;3.30;;;;;;;26.85;42.30;99487.39;104370;1285;69157;-87
2023/08/07 00:10:47;;;;;;;6.80;3.10;;;;;;;26.84;42.15;99491.70;104219;1289;69231;-87
2023/08/07 00:13:29;;;;;;;3.20;2.90;;;;;;;26.84;42.09;99497.23;104237;1286;69086;-92
2023/08/07 00:15:54;;;;;;;3.70;2.40;;;;;;;26.84;42.23;99494.48;104164;1288;73604;-87
2023/08/07 00:18:19;;;;;;;3.00;2.60;;;;;;;26.83;42.12;99499.13;104169;1286;69281;-86
2023/08/07 00:20:45;;;;;;;3.50;2.60;;;;;;;26.83;42.00;99491.88;104134;1291;69737;-87
2023/08/07 00:23:10;;;;;;;3.70;2.40;;;;;;;26.83;41.89;99498.52;104367;1289;69154;-87
2023/08/07 00:25:36;;;;;;;3.80;2.30;;;;;;;26.82;41.90;99497.50;104156;1291;69271;-87
2023/08/07 00:28:01;;;;;;;6.40;2.30;;;;;;;26.81;42.08;99497.85;104185;1288;69270;-87
2023/08/07 00:30:27;;;;;;;2.30;2.10;;;;;;;26.81;42.09;99496.83;104214;1291;69248;-87
2023/08/07 00:32:52;;;;;;;2.40;2.20;;;;;;;26.81;41.91;99501.50;104255;1289;69298;-87
2023/08/07 00:35:18;;;;;;;2.80;2.10;;;;;;;26.80;41.93;99492.90;104820;1287;69248;-85
2023/08/07 00:37:43;;;;;;;2.60;2.10;;;;;;;26.81;41.86;99497.20;104334;1287;69300;-86
2023/08/07 00:40:17;;;;;;;2.20;2.10;;;;;;;26.80;41.91;99498.05;104153;1286;69269;-91
2023/08/07 00:42:42;;;;;;;3.40;2.00;;;;;;;26.80;41.70;99499.82;104217;1286;69220;-86
2023/08/07 00:45:08;;;;;;;2.00;1.90;;;;;;;26.79;41.65;99504.73;104289;1289;69192;-86
2023/08/07 00:47:34;;;;;;;2.50;2.00;;;;;;;26.79;41.75;99508.94;104260;1287;69220;-86
2023/08/07 00:49:59;;;;;;;3.40;1.70;;;;;;;26.79;41.65;99508.36;104256;1290;68110;-86
2023/08/07 00:52:25;;;;;;;4.80;2.10;;;;;;;26.78;41.72;99514.57;104151;1286;69351;-85
2023/08/07 00:54:50;;;;;;;3.10;1.90;;;;;;;26.78;41.66;99514.80;104259;1286;70486;-86
2023/08/07 00:57:16;;;;;;;3.00;2.50;;;;;;;26.77;41.59;99517.76;104145;1292;69311;-86
2023/08/07 00:59:41;;;;;;;2.20;1.80;;;;;;;26.78;41.65;99522.88;104294;1289;69474;-86
2023/08/07 01:02:07;;;;;;;2.40;1.80;;;;;;;26.77;41.70;99525.25;104266;1288;69603;-86
2023/08/07 01:04:32;;;;;;;2.60;1.70;;;;;;;26.76;41.67;99521.33;104211;1286;67365;-86
2023/08/07 01:09:39;;;;;;;3.20;1.70;;;;;;;26.75;41.63;99528.32;104485;1287;69052;-86
2023/08/07 01:12:07;;;;;;;2.00;1.70;;;;;;;26.75;41.71;99529.46;104553;1283;69263;-86
2023/08/07 01:14:35;;;;;;;4.80;2.00;;;;;;;26.74;41.74;99532.23;104650;1282;69103;-86
2023/08/07 01:17:05;;;;;;;2.40;1.60;;;;;;;26.74;41.69;99527.80;104628;1287;69111;-86
2023/08/07 01:19:30;;;;;;;2.50;1.80;;;;;;;26.74;41.73;99531.33;104667;1287;74879;-86
2023/08/07 01:22:09;;;;;;;2.00;1.70;;;;;;;26.73;41.75;99537.52;104515;1283;69251;-91
2023/08/07 01:24:35;;;;;;;1.70;1.60;;;;;;;26.73;41.72;99541.59;104309;1282;69154;-86
2023/08/07 01:27:18;;;;;;;3.30;1.80;;;;;;;26.72;41.84;99546.70;104619;1285;69260;-86
2023/08/07 01:29:47;;;;;;;2.70;1.50;;;;;;;26.72;41.95;99542.98;104626;1285;68371;-85
2023/08/07 01:32:13;;;;;;;2.80;1.70;;;;;;;26.72;41.92;99550.19;104602;1282;73862;-86
2023/08/07 01:34:40;;;;;;;1.70;1.60;;;;;;;26.72;41.90;99548.34;104392;1286;69295;-86
2023/08/07 01:37:05;;;;;;;1.70;1.60;;;;;;;26.71;41.87;99539.36;104249;1288;67170;-87
2023/08/07 01:39:31;;;;;;;3.90;1.60;;;;;;;26.71;41.97;99539.52;104291;1288;69262;-86
2023/08/07 01:41:56;;;;;;;2.30;1.70;;;;;;;26.71;41.98;99545.98;104403;1282;66524;-86
2023/08/07 01:44:22;;;;;;;3.40;1.90;;;;;;;26.71;42.00;99556.48;104564;1285;69294;-86
2023/08/07 01:46:47;;;;;;;1.90;1.60;;;;;;;26.70;42.02;99559.16;104547;1284;69160;-86
2023/08/07 01:49:13;;;;;;;2.60;1.50;;;;;;;26.70;42.02;99564.08;104301;1285;69231;-86
2023/08/07 01:51:38;;;;;;;4.50;1.90;;;;;;;26.70;42.09;99568.17;104467;1286;69333;-86
2023/08/07 01:54:03;;;;;;;2.20;1.50;;;;;;;26.70;42.13;99567.91;104295;1285;67302;-86
2023/08/07 01:56:29;;;;;;;2.40;1.60;;;;;;;26.69;41.96;99577.92;104533;1288;69193;-86
2023/08/07 01:58:54;;;;;;;3.70;1.90;;;;;;;26.69;42.02;99581.90;104501;1285;69134;-86
2023/08/07 02:01:20;;;;;;;1.90;1.70;;;;;;;26.69;42.14;99575.02;104615;1287;69148;-86
2023/08/07 02:06:26;;;;;;;;;;;;;;;26.68;42.09;99580.06;104518;1285;69143;-86
2023/08/07 02:08:51;;;;;;;1.90;1.70;;;;;;;26.65;42.17;99581.95;104450;1285;70314;-86
2023/08/07 02:11:17;;;;;;;2.30;1.70;;;;;;;26.65;42.22;99582.67;104442;1287;69654;-86
2023/08/07 02:13:42;;;;;;;1.90;1.80;;;;;;;26.66;42.17;99588.85;104640;1285;69255;-86
2023/08/07 02:16:08;;;;;;;2.30;1.70;;;;;;;26.66;42.21;99596.07;104769;1283;67270;-86
2023/08/07 02:18:34;;;;;;;1.90;1.50;;;;;;;26.65;42.06;99593.19;104119;1285;326648;-86
2023/08/07 02:20:59;;;;;;;1.90;1.80;;;;;;;26.65;42.31;99585.82;104777;1285;69112;-86
2023/08/07 02:23:25;;;;;;;2.40;1.60;;;;;;;26.65;42.15;99582.38;104642;1282;69266;-86
2023/08/07 02:25:51;;;;;;;1.40;1.30;;;;;;;26.65;42.23;99583.24;104505;1287;69142;-86
2023/08/07 02:28:16;;;;;;;2.70;1.40;;;;;;;26.65;42.09;99588.47;104473;1287;69115;-86
2023/08/07 02:30:54;;;;;;;1.40;1.30;;;;;;;26.65;42.13;99595.96;104385;1282;69244;-91
2023/08/07 02:33:19;;;;;;;1.50;1.20;;;;;;;26.64;42.16;99596.50;104375;1282;69241;-85
2023/08/07 02:35:45;;;;;;;1.30;1.20;;;;;;;26.64;42.17;99595.20;104344;1283;69787;-86
2023/08/07 02:38:11;;;;;;;1.90;1.30;;;;;;;26.64;42.23;99599.41;104383;1285;69310;-86
2023/08/07 02:40:37;;;;;;;2.30;1.50;;;;;;;26.63;42.20;99601.93;104370;1285;69144;-86
2023/08/07 02:43:02;;;;;;;2.30;1.40;;;;;;;26.63;42.00;99603.19;104251;1286;69157;-86
2023/08/07 02:45:28;;;;;;;1.00;0.80;;;;;;;26.63;41.86;99604.89;104351;1285;69256;-85
2023/08/07 02:47:53;;;;;;;9.80;1.40;;;;;;;26.56;41.71;99616.49;104465;1285;69344;-86
2023/08/07 02:50:19;;;;;;;11.00;1.20;;;;;;;26.39;41.53;99617.84;104726;1284;69003;-86
2023/08/07 02:52:44;;;;;;;2.40;0.50;;;;;;;26.18;41.18;99617.39;104392;1285;69181;-85
2023/08/07 02:55:10;;;;;;;4.90;0.80;;;;;;;25.95;40.96;99612.55;104443;1286;69551;-86
2023/08/07 02:57:51;;;;;;;2.90;0.70;;;;;;;25.73;41.09;99616.48;104289;1285;73385;-91
2023/08/07 03:00:16;;;;;;;2.30;0.70;;;;;;;25.56;41.17;99617.13;104291;1285;69222;-86
2023/08/07 03:02:42;;;;;;;10.70;1.10;;;;;;;25.42;41.42;99617.42;104356;1287;69251;-86
2023/08/07 03:05:08;;;;;;;4.50;0.80;;;;;;;25.31;41.32;99618.11;104364;1287;69154;-85
2023/08/07 03:07:33;;;;;;;3.00;0.40;;;;;;;25.23;41.94;99625.58;104384;1285;69122;-85
2023/08/07 03:10:07;;;;;;;4.10;0.50;;;;;;;25.09;41.75;99628.77;104459;1283;69313;-86
2023/08/07 03:12:48;;;;;;;1.20;0.60;;;;;;;24.91;41.86;99634.19;104572;1284;69116;-91
2023/08/07 03:15:13;;;;;;;1.40;0.60;;;;;;;24.73;42.17;99638.04;104315;1285;69196;-86
2023/08/07 03:17:39;;;;;;;3.50;0.60;;;;;;;24.59;42.32;99642.16;104415;1285;69247;-86
2023/08/07 03:20:05;;;;;;;1.00;0.60;;;;;;;24.46;42.14;99645.39;104305;1287;69290;-85
2023/08/07 03:22:30;;;;;;;0.50;0.50;;;;;;;24.34;42.50;99653.11;104341;1286;70480;-85
2023/08/07 03:24:56;;;;;;;4.40;0.80;;;;;;;24.24;42.75;99653.45;104268;1289;69210;-86
2023/08/07 03:27:21;;;;;;;1.60;0.80;;;;;;;24.15;42.67;99658.79;104279;1287;69197;-85
2023/08/07 03:29:47;;;;;;;2.20;0.80;;;;;;;24.05;42.88;99653.26;104337;1284;69355;-85
2023/08/07 03:32:12;;;;;;;2.00;0.70;;;;;;;23.96;42.98;99654.89;104444;1287;67326;-85
2023/08/07 03:34:38;;;;;;;1.30;0.80;;;;;;;23.91;43.16;99655.05;104590;1287;69282;-85
2023/08/07 03:37:03;;;;;;;2.80;0.90;;;;;;;23.85;43.26;99653.09;104721;1284;69200;-86
2023/08/07 03:39:40;;;;;;;2.40;1.00;;;;;;;23.82;43.46;99651.88;104327;1285;69247;-91
2023/08/07 03:42:06;;;;;;;1.90;0.90;;;;;;;23.77;43.43;99648.31;104326;1286;69244;-87
2023/08/07 03:44:33;;;;;;;5.50;1.10;;;;;;;23.72;43.54;99645.00;104054;1286;69417;-85
2023/08/07 03:46:58;;;;;;;2.50;1.10;;;;;;;23.70;43.68;99651.38;104364;1285;69221;-85
2023/08/07 03:49:24;;;;;;;4.40;1.20;;;;;;;23.72;43.72;99658.19;104100;1285;69366;-85
2023/08/07 03:51:49;;;;;;;6.60;1.50;;;;;;;23.72;43.78;99659.68;104286;1284;69180;-86
2023/08/07 03:54:15;;;;;;;7.80;1.60;;;;;;;23.65;43.65;99663.27;104232;1290;69340;-85
2023/08/07 03:56:40;;;;;;;3.00;1.40;;;;;;;23.60;43.86;99666.73;104409;1285;69277;-85
2023/08/07 03:59:06;;;;;;;4.20;2.30;;;;;;;23.55;43.88;99669.84;104420;1285;71079;-86
2023/08/07 04:01:31;;;;;;;4.50;2.00;;;;;;;23.48;43.87;99676.77;104553;1285;69282;-86
2023/08/07 04:03:57;;;;;;;2.10;1.90;;;;;;;23.44;44.06;99679.18;104344;1288;69255;-86
2023/08/07 04:06:23;;;;;;;2.40;2.20;;;;;;;23.36;44.11;99677.81;104427;1287;69250;-91
2023/08/07 04:08:48;;;;;;;6.00;2.20;;;;;;;23.35;44.29;99674.86;104303;1284;74818;-85
2023/08/07 04:11:14;;;;;;;3.70;2.20;;;;;;;23.31;44.19;99673.62;104458;1285;69244;-86
2023/08/07 04:13:39;;;;;;;3.80;2.10;;;;;;;23.27;44.38;99676.66;104387;1285;69749;-85
2023/08/07 04:16:05;;;;;;;4.40;2.30;;;;;;;23.27;44.42;99677.85;104217;1284;69234;-86
2023/08/07 04:18:31;;;;;;;4.40;2.30;;;;;;;23.29;44.52;99678.17;104445;1285;69279;-86
2023/08/07 04:20:57;;;;;;;2.80;2.20;;;;;;;23.31;44.52;99686.71;104377;1285;69247;-85
2023/08/07 04:23:23;;;;;;;4.10;2.20;;;;;;;23.31;44.59;99687.66;104370;1285;69247;-85
2023/08/07 04:25:49;;;;;;;4.00;2.50;;;;;;;23.31;44.57;99686.65;104469;1285;69216;-85
2023/08/07 04:28:14;;;;;;;6.20;3.00;;;;;;;23.31;44.61;99684.84;104496;1285;69153;-85
2023/08/07 04:30:40;;;;;;;4.30;2.80;;;;;;;23.33;44.61;99686.45;104497;1288;69230;-85
2023/08/07 04:33:07;;;;;;;4.80;2.70;;;;;;;23.35;44.66;99682.14;104505;1288;69243;-85
2023/08/07 04:35:32;;;;;;;5.70;2.90;;;;;;;23.36;44.51;99685.86;104491;1285;69243;-85
2023/08/07 04:37:58;;;;;;;8.10;3.00;;;;;;;23.36;44.49;99691.48;104314;1285;67890;-85
2023/08/07 04:40:23;;;;;;;2.90;2.50;;;;;;;23.34;44.55;99698.61;104253;1289;69339;-85
2023/08/07 04:42:49;;;;;;;4.20;2.80;;;;;;;23.30;44.65;99702.06;104541;1284;69252;-86
2023/08/07 04:45:25;;;;;;;7.10;2.50;;;;;;;23.26;44.64;99702.81;104342;1285;69087;-91
2023/08/07 04:47:50;;;;;;;9.30;3.10;;;;;;;23.22;44.68;99706.38;104562;1285;68334;-85
2023/08/07 04:50:16;;;;;;;17.80;2.90;;;;;;;23.22;44.75;99702.50;104585;1285;69477;-86
2023/08/07 04:52:41;;;;;;;15.70;3.20;;;;;;;23.24;44.63;99704.97;104589;1286;69183;-85
2023/08/07 04:55:07;;;;;;;28.30;4.80;;;;;;;23.24;44.76;99703.05;104470;1285;69356;-84
2023/08/07 04:57:33;;;;;;;11.40;3.20;;;;;;;23.34;45.15;99706.29;104818;1287;69719;-84
2023/08/07 04:59:59;;;;;;;25.80;4.20;;;;;;;23.44;45.14;99708.33;104605;1285;72809;-83
2023/08/07 05:02:24;;;;;;;41.10;4.70;;;;;;;23.54;45.25;99712.05;104573;1284;67372;-83
2023/08/07 05:04:50;;;;;;;29.50;4.50;;;;;;;23.64;45.03;99708.96;104554;1285;69378;-83
2023/08/07 05:07:15;;;;;;;22.40;3.80;;;;;;;23.69;44.88;99717.36;104581;1285;69285;-83
2023/08/07 05:09:41;;;;;;;9.00;3.30;;;;;;;23.74;44.92;99718.28;104562;1284;69173;-83
2023/08/07 05:12:07;;;;;;;10.70;3.80;;;;;;;23.81;44.74;99721.70;104528;1287;69179;-88
2023/08/07 05:14:33;;;;;;;8.40;3.10;;;;;;;23.88;44.60;99731.10;104673;1285;69215;-83
2023/08/07 05:16:59;;;;;;;16.50;3.50;;;;;;;23.89;44.43;99733.60;104585;1285;69238;-83
2023/08/07 05:19:25;;;;;;;9.90;2.80;;;;;;;23.90;44.58;99737.17;104630;1286;69240;-83
2023/08/07 05:21:51;;;;;;;10.80;2.60;;;;;;;23.93;44.59;99732.32;104786;1285;69266;-83
2023/08/07 05:24:17;;;;;;;5.20;2.60;;;;;;;23.93;44.56;99732.02;104531;1288;69601;-84
2023/08/07 05:26:42;;;;;;;10.40;3.10;;;;;;;23.95;44.40;99730.67;104617;1284;69263;-83
2023/08/07 05:29:08;;;;;;;9.60;2.60;;;;;;;23.98;44.27;99733.17;104533;1287;69191;-83
2023/08/07 05:31:34;;;;;;;8.60;2.80;;;;;;;24.01;44.32;99733.85;104507;1284;69422;-83
2023/08/07 05:33:59;;;;;;;7.90;2.70;;;;;;;24.04;44.27;99737.09;104381;1290;69268;-83
2023/08/07 05:36:25;;;;;;;3.50;2.60;;;;;;;24.07;43.86;99738.77;104646;1285;69278;-84
2023/08/07 05:38:50;;;;;;;7.60;2.40;;;;;;;24.06;43.83;99737.19;104752;1285;66997;-83
2023/08/07 05:41:16;;;;;;;4.80;2.50;;;;;;;24.10;43.62;99745.73;104768;1285;69172;-83
2023/08/07 05:43:42;;;;;;;10.00;2.50;;;;;;;24.13;43.60;99748.20;104604;1285;80312;-85
2023/08/07 05:46:07;;;;;;;8.50;2.40;;;;;;;24.17;43.56;99746.27;104706;1288;69215;-85
2023/08/07 05:48:33;;;;;;;6.90;2.40;;;;;;;24.19;43.69;99742.56;104728;1284;68001;-86
2023/08/07 05:51:15;;;;;;;4.60;2.30;;;;;;;24.22;43.39;99743.94;104408;1288;73625;-91
2023/08/07 05:53:40;;;;;;;7.40;2.50;;;;;;;24.21;43.47;99743.77;104668;1284;69194;-85
2023/08/07 05:56:06;;;;;;;7.80;2.50;;;;;;;24.25;43.44;99742.73;104445;1285;69259;-85
2023/08/07 05:58:32;;;;;;;4.90;2.10;;;;;;;24.27;43.37;99742.06;104697;1285;69241;-85
2023/08/07 06:00:57;;;;;;;10.90;2.20;;;;;;;24.30;43.19;99743.94;104569;1286;69275;-86
2023/08/07 06:03:23;;;;;;;9.20;1.90;;;;;;;24.33;43.11;99749.87;105022;1285;69215;-86
2023/08/07 06:05:48;;;;;;;4.60;2.00;;;;;;;24.36;43.14;99750.42;104466;1285;70322;-85
2023/08/07 06:08:14;;;;;;;9.20;2.00;;;;;;;24.39;43.03;99752.75;104437;1285;69350;-85
2023/08/07 06:10:39;;;;;;;8.60;2.00;;;;;;;24.40;42.86;99754.00;104520;1287;69199;-85
2023/08/07 06:13:05;;;;;;;5.40;1.60;;;;;;;24.41;42.79;99757.59;104434;1285;69215;-85
2023/08/07 06:15:32;;;;;;;5.80;1.80;;;;;;;24.37;42.68;99761.48;104316;1290;69377;-86
2023/08/07 06:18:05;;;;;;;5.90;1.70;;;;;;;24.38;42.69;99766.66;104367;1286;69259;-91
2023/08/07 06:20:30;;;;;;;6.90;2.10;;;;;;;24.41;42.58;99772.91;104474;1288;71027;-85
2023/08/07 06:22:56;;;;;;;4.70;1.80;;;;;;;24.45;42.53;99777.80;104491;1285;69259;-85
2023/08/07 06:25:21;;;;;;;5.70;1.80;;;;;;;24.49;42.42;99779.41;104606;1287;69189;-86
2023/08/07 06:27:47;;;;;;;7.70;2.30;;;;;;;24.50;42.60;99783.57;104588;1290;69246;-86
2023/08/07 06:30:13;;;;;;;6.80;1.80;;;;;;;24.52;42.10;99784.95;104794;1291;69907;-85
2023/08/07 06:32:39;;;;;;;3.90;1.70;;;;;;;24.54;42.13;99784.48;104693;1291;73544;-86
2023/08/07 06:35:05;;;;;;;8.30;1.90;;;;;;;24.56;42.15;99782.67;104777;1290;69391;-86
2023/08/07 06:37:31;;;;;;;12.00;2.00;;;;;;;24.57;42.23;99780.83;104688;1290;67874;-85
2023/08/07 06:39:57;;;;;;;6.70;1.70;;;;;;;24.58;42.10;99781.98;104959;1285;69394;-86
2023/08/07 06:42:23;;;;;;;10.70;2.60;;;;;;;24.57;41.70;99783.92;105032;1286;69721;-86
2023/08/07 06:44:59;;;;;;;4.50;1.80;;;;;;;24.58;41.80;99784.73;104640;1291;69255;-92
2023/08/07 06:47:25;;;;;;;4.50;1.50;;;;;;;24.60;41.93;99788.02;104521;1287;69133;-86
2023/08/07 06:49:50;;;;;;;5.50;1.70;;;;;;;24.59;41.87;99796.88;104793;1287;69256;-86
2023/08/07 06:52:16;;;;;;;5.70;1.50;;;;;;;24.59;41.52;99803.46;104650;1289;69272;-86
2023/08/07 06:54:41;;;;;;;6.10;1.40;;;;;;;24.59;41.41;99810.50;104562;1286;69193;-86
2023/08/07 06:57:07;;;;;;;5.90;1.50;;;;;;;24.60;41.37;99811.70;104567;1284;69206;-85
2023/08/07 06:59:32;;;;;;;7.00;1.80;;;;;;;24.61;41.26;99808.77;104756;1288;67266;-85
2023/08/07 07:01:58;;;;;;;3.30;1.50;;;;;;;24.63;41.38;99811.44;104950;1291;69263;-86
2023/08/07 07:04:23;;;;;;;3.40;1.80;;;;;;;24.65;41.18;99815.36;104679;1285;69262;-85
2023/08/07 07:06:49;;;;;;;3.40;1.20;;;;;;;24.66;41.00;99823.45;104981;1288;69647;-86
2023/08/07 07:09:16;;;;;;;4.10;1.40;;;;;;;24.68;40.99;99822.07;104632;1288;69080;-86
2023/08/07 07:14:22;;;;;;;6.90;1.30;;;;;;;24.71;40.57;99822.31;104894;1282;69029;-86
2023/08/07 07:16:48;;;;;;;10.10;1.40;;;;;;;24.73;40.57;99825.46;105355;1282;69194;-85
2023/08/07 07:19:13;;;;;;;6.30;1.30;;;;;;;24.75;40.43;99827.97;106003;1285;68184;-85
2023/08/07 07:21:39;;;;;;;4.50;1.40;;;;;;;24.79;40.35;99828.52;105687;1282;69252;-86
2023/08/07 07:24:05;;;;;;;7.50;1.40;;;;;;;24.80;40.54;99828.27;105644;1282;69259;-86
2023/08/07 07:26:31;;;;;;;4.30;1.30;;;;;;;24.82;40.41;99827.17;104868;1282;73056;-86
2023/08/07 07:28:56;;;;;;;5.10;1.20;;;;;;;24.84;40.18;99826.83;104668;1290;69176;-85
2023/08/07 07:31:22;;;;;;;6.00;2.70;;;;;;;24.87;39.97;99825.71;104701;1282;69247;-85
2023/08/07 07:33:48;;;;;;;3.30;3.00;;;;;;;24.89;40.13;99832.55;104636;1285;69171;-85
2023/08/07 07:36:15;;;;;;;4.10;2.00;;;;;;;24.90;39.96;99828.11;104523;1288;69349;-85
2023/08/07 07:38:49;;;;;;;6.70;1.70;;;;;;;24.90;39.78;99836.23;104729;1282;69027;-91
2023/08/07 07:41:15;;;;;;;7.20;1.50;;;;;;;24.90;39.76;99834.08;104630;1282;70167;-86
2023/08/07 07:43:41;;;;;;;7.70;1.50;;;;;;;24.91;39.68;99835.74;104743;1282;69241;-85
2023/08/07 07:46:06;;;;;;;3.60;1.20;;;;;;;24.93;39.49;99832.45;104706;1283;68155;-85
2023/08/07 07:48:32;;;;;;;3.40;1.20;;;;;;;24.94;39.38;99834.17;104789;1287;69099;-85
2023/08/07 07:50:59;;;;;;;3.50;1.30;;;;;;;24.96;39.40;99837.27;104755;1287;69165;-86
2023/08/07 07:53:25;;;;;;;4.60;1.30;;;;;;;24.97;39.24;99835.02;104523;1285;70425;-85
2023/08/07 07:55:50;;;;;;;3.80;1.20;;;;;;;24.99;39.09;99833.42;104601;1288;70316;-85
2023/08/07 07:58:16;;;;;;;5.80;1.30;;;;;;;25.02;39.22;99835.10;105102;1283;69231;-86
2023/08/07 08:00:42;;;;;;;5.60;1.60;;;;;;;25.06;39.02;99839.56;104592;1285;69347;-85
2023/08/07 08:03:08;;;;;;;5.40;1.20;;;;;;;25.09;38.93;99839.70;104654;1283;69177;-85
2023/08/07 08:05:41;;;;;;;1.70;1.10;;;;;;;25.11;39.17;99836.97;104716;1285;69155;-91
2023/08/07 08:08:07;;;;;;;2.90;1.40;;;;;;;25.15;39.04;99838.15;104567;1283;69148;-86
2023/08/07 08:10:34;;;;;;;4.70;1.10;;;;;;;25.17;38.76;99834.98;104574;1285;69277;-85
2023/08/07 08:12:59;;;;;;;3.50;1.10;;;;;;;25.18;38.66;99838.36;104326;1286;69261;-86
2023/08/07 08:15:25;;;;;;;4.80;1.10;;;;;;;25.20;38.35;99839.96;104403;1285;69217;-87
2023/08/07 08:17:50;;;;;;;6.10;1.20;;;;;;;25.22;38.45;99839.45;104457;1284;69353;-86
2023/08/07 08:20:20;;;;;;;5.50;1.30;;;;;;;25.24;38.44;99838.25;104553;1288;69262;-85
2023/08/07 08:22:46;;;;;;;7.10;1.00;;;;;;;25.28;38.37;99837.17;104522;1285;69247;-85
2023/08/07 08:25:11;;;;;;;4.50;1.10;;;;;;;25.30;38.17;99835.45;104694;1285;71808;-85
2023/08/07 08:27:38;;;;;;;2.00;1.00;;;;;;;25.32;37.96;99847.50;104339;1289;69345;-85
2023/08/07 08:30:03;;;;;;;3.10;0.90;;;;;;;25.34;37.73;99845.70;104702;1285;69113;-85
2023/08/07 08:32:29;;;;;;;5.10;0.90;;;;;;;25.36;37.58;99848.43;104531;1286;69448;-86
2023/08/07 08:34:55;;;;;;;3.30;1.10;;;;;;;25.39;37.54;99844.85;104505;1287;69125;-85
2023/08/07 08:37:21;;;;;;;3.80;1.10;;;;;;;25.40;37.22;99838.63;104568;1287;69131;-85
2023/08/07 08:39:46;;;;;;;1.40;0.70;;;;;;;25.42;37.23;99844.05;104522;1285;69192;-85
2023/08/07 08:42:17;;;;;;;2.50;1.00;;;;;;;25.44;37.29;99846.80;104703;1287;69359;-86
2023/08/07 08:44:48;;;;;;;4.40;1.00;;;;;;;25.45;37.41;99849.08;104463;1291;73584;-86
2023/08/07 08:47:14;;;;;;;3.80;1.10;;;;;;;25.48;37.07;99842.63;104593;1286;69181;-85
2023/08/07 08:49:46;;;;;;;2.00;1.20;;;;;;;25.49;36.88;99843.62;104535;1287;69281;-86
2023/08/07 08:52:12;;;;;;;4.90;1.50;;;;;;;25.49;36.95;99841.20;104795;1285;69136;-86
2023/08/07 08:54:37;;;;;;;3.20;1.20;;;;;;;25.49;36.76;99848.15;104470;1285;69275;-86
2023/08/07 08:57:03;;;;;;;2.10;1.10;;;;;;;25.50;36.84;99849.74;104493;1285;69262;-86
2023/08/07 08:59:28;;;;;;;3.00;0.90;;;;;;;25.52;36.92;99851.86;104593;1285;69227;-87
2023/08/07 09:01:54;;;;;;;2.90;0.90;;;;;;;25.56;36.59;99854.30;104585;1288;69300;-85
2023/08/07 09:04:19;;;;;;;3.30;0.90;;;;;;;25.57;36.71;99857.52;104571;1285;69268;-85
2023/08/07 09:06:45;;;;;;;2.00;1.00;;;;;;;25.58;36.50;99863.89;104670;1290;69395;-86
2023/08/07 09:09:11;;;;;;;5.90;0.80;;;;;;;25.60;36.73;99864.20;104627;1289;69264;-86
2023/08/07 09:11:37;;;;;;;3.40;0.70;;;;;;;25.61;36.57;99859.39;104719;1285;69191;-86
2023/08/07 09:14:03;;;;;;;2.60;0.70;;;;;;;25.62;36.45;99857.35;104769;1283;69177;-86
2023/08/07 09:16:28;;;;;;;5.60;0.90;;;;;;;25.63;36.19;99867.02;104885;1283;69252;-86
2023/08/07 09:18:55;;;;;;;2.60;1.10;;;;;;;25.64;36.07;99857.40;104445;1283;69203;-85
2023/08/07 09:21:20;;;;;;;2.50;0.90;;;;;;;25.65;35.81;99859.48;104495;1286;69146;-86
2023/08/07 09:23:46;;;;;;;5.10;0.80;;;;;;;25.66;35.82;99861.82;104689;1283;69276;-86
2023/08/07 09:26:28;;;;;;;1.60;0.70;;;;;;;25.69;35.74;99863.20;104702;1288;69201;-91
2023/08/07 09:28:54;;;;;;;2.80;0.90;;;;;;;25.70;35.57;99859.73;104796;1283;73451;-85
2023/08/07 09:31:20;;;;;;;5.30;0.80;;;;;;;25.71;35.56;99865.66;106149;1286;66807;-87
2023/08/07 09:33:49;;;;;;;3.20;1.20;;;;;;;25.72;35.43;99866.38;104559;1284;69235;-87
2023/08/07 09:36:14;;;;;;;1.50;0.80;;;;;;;25.73;35.00;99869.45;104718;1286;69174;-87
2023/08/07 09:38:40;;;;;;;1.50;0.60;;;;;;;25.74;34.89;99869.38;104761;1284;69364;-87
2023/08/07 09:43:46;;;;;;;2.30;0.80;;;;;;;25.75;34.60;99876.30;104633;1287;69254;-86
2023/08/07 09:46:11;;;;;;;1.90;0.80;;;;;;;25.77;34.57;99881.25;104676;1282;69213;-86
2023/08/07 09:48:43;;;;;;;2.20;0.70;;;;;;;25.79;34.42;99876.90;104758;1285;70514;-86
2023/08/07 09:51:09;;;;;;;5.10;0.80;;;;;;;25.79;34.28;99877.30;104710;1283;69238;-86
2023/08/07 09:53:35;;;;;;;3.00;1.70;;;;;;;25.80;34.19;99875.83;104477;1291;69356;-86
2023/08/07 09:56:00;;;;;;;9.50;6.50;;;;;;;25.83;34.19;99877.73;104674;1285;69190;-86
2023/08/07 09:58:26;;;;;;;13.60;10.90;;;;;;;25.84;33.95;99875.61;104901;1285;69266;-87
2023/08/07 10:00:59;;;;;;;11.40;8.90;;;;;;;25.85;33.88;99876.26;104934;1285;69183;-86
2023/08/07 10:03:25;;;;;;;6.30;4.40;;;;;;;25.87;34.02;99887.90;104571;1285;73605;-86
2023/08/07 10:05:50;;;;;;;5.20;4.70;;;;;;;25.88;33.89;99882.50;104756;1283;69234;-86
2023/08/07 10:08:16;;;;;;;6.00;4.70;;;;;;;25.89;34.04;99879.89;104674;1291;69323;-86
2023/08/07 10:10:41;;;;;;;4.50;3.00;;;;;;;25.91;34.16;99883.75;104530;1285;69366;-87
2023/08/07 10:13:07;;;;;;;2.40;2.20;;;;;;;25.92;34.15;99886.60;104490;1283;69195;-86
2023/08/07 10:15:33;;;;;;;4.90;2.10;;;;;;;25.93;34.04;99882.15;104676;1285;72330;-86
2023/08/07 10:17:59;;;;;;;2.70;1.50;;;;;;;25.94;34.20;99881.81;104481;1286;69358;-86
2023/08/07 10:20:26;;;;;;;2.80;1.60;;;;;;;25.95;34.12;99888.23;104544;1284;69329;-87
2023/08/07 10:22:51;;;;;;;3.30;1.30;;;;;;;25.96;33.96;99893.91;104674;1286;69393;-86
2023/08/07 10:25:19;;;;;;;2.90;1.00;;;;;;;25.98;33.78;99885.25;104682;1287;70620;-86
2023/08/07 10:27:45;;;;;;;1.20;1.10;;;;;;;25.99;33.93;99880.20;104769;1288;69253;-86
2023/08/07 10:30:14;;;;;;;2.20;1.10;;;;;;;26.00;34.07;99885.13;104440;1285;69307;-86
2023/08/07 10:32:41;;;;;;;3.00;1.00;;;;;;;26.00;33.94;99870.27;104510;1283;69601;-86
2023/08/07 10:35:07;;;;;;;2.70;1.00;;;;;;;26.01;33.74;99875.59;104470;1283;69294;-92
2023/08/07 10:37:42;;;;;;;3.00;1.00;;;;;;;26.01;33.68;99879.17;104646;1285;69204;-86
2023/08/07 10:40:12;;;;;;;3.40;1.00;;;;;;;26.02;33.73;99877.93;104815;1286;69022;-86
2023/08/07 10:42:59;;;;;;;2.00;1.00;;;;;;;26.02;33.72;99874.57;104407;1285;72655;-86
2023/08/07 10:45:25;;;;;;;5.40;1.10;;;;;;;26.03;33.61;99878.20;104806;1287;69154;-86
2023/08/07 10:48:09;;;;;;;3.30;0.90;;;;;;;26.03;33.83;99871.59;104658;1287;69152;-86
2023/08/07 10:50:45;;;;;;;3.90;1.20;;;;;;;26.04;33.79;99868.78;104478;1285;73772;-86
2023/08/07 10:53:12;;;;;;;2.00;1.00;;;;;;;26.04;33.80;99870.27;104637;1285;69726;-87
2023/08/07 10:55:45;;;;;;;2.70;1.10;;;;;;;26.06;33.94;99876.09;104408;1288;69132;-86
2023/08/07 10:58:29;;;;;;;4.60;0.80;;;;;;;26.08;33.98;99877.55;105872;1283;69042;-86
2023/08/07 11:01:20;;;;;;;2.50;0.90;;;;;;;26.09;33.89;99874.26;104876;1285;69151;-86
2023/08/07 11:03:53;;;;;;;2.00;0.70;;;;;;;26.09;33.83;99869.91;104933;1285;74099;-86
2023/08/07 11:06:44;;;;;;;2.90;1.10;;;;;;;26.10;33.62;99864.62;105112;1287;69131;-86
2023/08/07 11:09:09;;;;;;;;;;;;;;;26.12;33.50;99861.08;104707;1286;69163;-86
2023/08/07 11:11:40;;;;;;;3.90;0.80;;;;;;;26.10;33.61;99863.80;104764;1285;69346;-86
2023/08/07 11:14:25;;;;;;;4.70;0.90;;;;;;;26.13;33.70;99859.19;104649;1285;69079;-87
2023/08/07 11:17:05;;;;;;;4.30;0.70;;;;;;;26.14;33.72;99857.61;104995;1287;74442;-91
2023/08/07 11:19:31;;;;;;;2.20;0.80;;;;;;;26.16;33.50;99862.58;104891;1284;69148;-85
2023/08/07 11:21:57;;;;;;;2.60;0.70;;;;;;;26.17;33.68;99858.05;105178;1288;69247;-85
2023/08/07 11:24:22;;;;;;;1.10;0.60;;;;;;;26.19;33.73;99850.12;104870;1289;69781;-85
2023/08/07 11:26:48;;;;;;;5.30;0.90;;;;;;;26.20;33.41;99863.69;104566;1285;69274;-87
2023/08/07 11:29:17;;;;;;;2.10;0.70;;;;;;;26.21;33.13;99859.98;104739;1286;69874;-86
2023/08/07 11:34:19;;;;;;;2.60;0.80;;;;;;;26.23;32.98;99853.79;105121;1282;69701;-85
2023/08/07 11:36:45;;;;;;;2.90;1.00;;;;;;;26.25;32.93;99854.80;104688;1282;69342;-85